This is the latest recevied weather packets stored in our database for station/object KD5UIG. If no packets are shown the sender has not sent any weather packets the latest 10 day(s).
| Time | Temp. | Humidity | Pressure | Rain* | Wind** | Luminosity | Snow |
|---|---|---|---|---|---|---|---|
| 1777749055 | 25.56° C | 39% | 1020.8 hPa | 0 mm | - | 895 W/m² | - |
| 1777744857 | 25.56° C | 37% | 1021.7 hPa | 0 mm | - | 888 W/m² | - |
| 1777744256 | 25° C | 36% | 1021.8 hPa | 0 mm | - | 881 W/m² | - |
| 1777743984 | 25° C | 32% | 1021.8 hPa | 0 mm | - | 879 W/m² | - |
| 1777742459 | 24.44° C | 39% | 1022.2 hPa | 0 mm | - | 861 W/m² | - |
| 1777741855 | 23.89° C | 35% | 1022.2 hPa | 0 mm | - | 849 W/m² | - |
| 1777741260 | 23.89° C | 35% | 1022.2 hPa | 0 mm | - | 838 W/m² | - |
| 1777739457 | 23.33° C | 34% | 1022.3 hPa | 0 mm | - | 796 W/m² | - |
| 1777736456 | 21.67° C | 39% | 1022.2 hPa | 0 mm | - | 689 W/m² | - |
| 1777734659 | 21.67° C | 47% | 1022 hPa | 0 mm | - | 612 W/m² | - |
| 1777734070 | 20.56° C | 46% | 1022.1 hPa | 0 mm | - | 584 W/m² | - |
| 1777733456 | 21.11° C | 45% | 1022 hPa | 0 mm | - | 554 W/m² | - |
| 1777733158 | 20.56° C | 46% | 1022.1 hPa | 0 mm | - | 538 W/m² | - |
| 1777732855 | 20° C | 53% | 1021.9 hPa | 0 mm | - | 520 W/m² | - |
| 1777732559 | 19.44° C | 52% | 1021.9 hPa | 0 mm | - | 508 W/m² | - |
| 1777730756 | 16.67° C | 71% | 1021.9 hPa | 0 mm | - | 410 W/m² | - |
| 1777730155 | 15.56° C | 77% | 1021.8 hPa | 0 mm | - | 380 W/m² | - |
| 1777729856 | 15° C | 81% | 1021.8 hPa | 0 mm | - | 362 W/m² | - |
| 1777727455 | 11.11° C | 88% | 1021.6 hPa | 0 mm | - | 218 W/m² | - |
| 1777727156 | 10.56° C | 88% | 1021.5 hPa | 0 mm | - | 199 W/m² | - |
| 1777725056 | 8.89° C | 88% | 1021.1 hPa | 0 mm | - | 83 W/m² | - |
| 1777724755 | 8.89° C | 88% | 1021 hPa | 0 mm | - | 67 W/m² | - |
| 1777724154 | 8.33° C | 88% | 1020.7 hPa | 0 mm | - | 44 W/m² | - |
| 1777722956 | 8.33° C | 87% | 1020.4 hPa | 0 mm | - | 12 W/m² | - |
| 1777721457 | 8.89° C | 87% | 1020.2 hPa | 0 mm | - | 0 W/m² | - |
* Rain latest hour (hover to see other rain measurements)
** Current wind speed in m/s (hover to see current wind gust speed)